createdAt,value
2022-08-05T00:00:16.514Z,5.63
2022-08-05T00:02:50.785Z,5.47
2022-08-05T00:05:27.054Z,5.28
2022-08-05T00:08:06.819Z,5.22
2022-08-05T00:10:52.793Z,6.45
2022-08-05T00:13:19.878Z,14.20
2022-08-05T00:15:55.457Z,9.87
2022-08-05T00:18:24.823Z,8.23
2022-08-05T00:20:51.721Z,12.85
2022-08-05T00:23:44.582Z,9.52
2022-08-05T00:26:07.028Z,8.90
2022-08-05T00:28:33.709Z,8.07
2022-08-05T00:31:04.324Z,10.30
2022-08-05T00:34:54.484Z,10.85
2022-08-05T00:37:08.907Z,10.80
2022-08-05T00:39:04.488Z,9.18
2022-08-05T00:41:46.864Z,9.70
2022-08-05T00:44:18.826Z,9.93
2022-08-05T00:46:47.729Z,15.30
2022-08-05T00:49:20.836Z,20.83
2022-08-05T00:51:51.067Z,20.77
2022-08-05T00:54:18.681Z,20.23
2022-08-05T00:56:51.542Z,18.25
2022-08-05T00:59:18.468Z,19.05
2022-08-05T01:01:48.539Z,16.85
2022-08-05T01:04:15.798Z,17.27
2022-08-05T01:06:47.892Z,17.73
2022-08-05T01:09:19.879Z,16.73
2022-08-05T01:11:49.589Z,17.23
2022-08-05T01:14:33.748Z,14.35
2022-08-05T01:17:05.536Z,19.00
2022-08-05T01:20:01.823Z,18.40
2022-08-05T01:22:51.354Z,16.25
2022-08-05T01:25:40.577Z,17.60
2022-08-05T01:28:18.752Z,14.88
2022-08-05T01:30:55.323Z,13.98
2022-08-05T01:33:26.308Z,13.60
2022-08-05T01:35:57.668Z,14.70
2022-08-05T01:38:29.061Z,15.38
2022-08-05T01:41:01.502Z,15.70
2022-08-05T01:43:30.012Z,15.35
2022-08-05T01:45:58.403Z,17.40
2022-08-05T01:48:36.588Z,14.93
2022-08-05T01:51:12.143Z,16.40
2022-08-05T01:53:57.230Z,15.85
2022-08-05T01:58:11.650Z,16.80
2022-08-05T01:59:20.186Z,15.27
2022-08-05T02:01:48.138Z,17.52
2022-08-05T02:04:18.470Z,19.58
2022-08-05T02:06:45.197Z,17.92
2022-08-05T02:09:11.968Z,16.02
2022-08-05T02:11:52.470Z,18.27
2022-08-05T02:14:32.045Z,15.25
2022-08-05T02:17:06.613Z,14.90
2022-08-05T02:19:46.952Z,16.30
2022-08-05T02:22:17.422Z,16.10
2022-08-05T02:25:00.100Z,16.23
2022-08-05T02:27:30.094Z,15.68
2022-08-05T02:30:16.535Z,15.73
2022-08-05T02:32:48.080Z,14.32
2022-08-05T02:35:27.597Z,14.30
2022-08-05T02:37:56.674Z,16.27
2022-08-05T02:40:27.556Z,13.38
2022-08-05T02:42:56.332Z,13.05
2022-08-05T02:45:25.462Z,13.68
2022-08-05T02:48:07.428Z,15.18
2022-08-05T02:50:43.834Z,13.23
2022-08-05T02:53:12.070Z,16.15
2022-08-05T02:55:54.358Z,14.18
2022-08-05T02:58:28.751Z,16.30
2022-08-05T03:00:56.713Z,13.77
2022-08-05T03:03:23.886Z,14.97
2022-08-05T03:06:54.335Z,14.80
2022-08-05T03:08:42.381Z,14.80
2022-08-05T03:11:57.200Z,13.32
2022-08-05T03:14:08.111Z,12.95
2022-08-05T03:16:35.820Z,11.97
2022-08-05T03:19:04.285Z,14.55
2022-08-05T03:21:49.446Z,14.52
2022-08-05T03:24:29.269Z,14.73
2022-08-05T03:26:57.143Z,15.57
2022-08-05T03:29:24.197Z,13.90
2022-08-05T03:32:11.362Z,18.27
2022-08-05T03:34:38.613Z,14.95
2022-08-05T03:37:06.523Z,14.65
2022-08-05T03:39:38.152Z,16.00
2022-08-05T03:42:19.483Z,15.87
2022-08-05T03:44:45.963Z,15.70
2022-08-05T03:47:14.093Z,19.40
2022-08-05T03:49:51.585Z,12.15
2022-08-05T03:52:48.928Z,10.18
2022-08-05T03:56:06.146Z,9.43
2022-08-05T03:58:10.703Z,7.63
2022-08-05T04:00:42.026Z,7.53
2022-08-05T04:03:26.691Z,8.15
2022-08-05T04:05:56.782Z,7.45
2022-08-05T04:08:34.800Z,9.13
2022-08-05T04:11:07.279Z,10.10
2022-08-05T04:13:50.369Z,9.35
2022-08-05T04:16:25.196Z,9.13
2022-08-05T04:19:00.127Z,10.07
2022-08-05T04:22:08.506Z,10.80
2022-08-05T04:24:19.653Z,13.82
2022-08-05T04:26:49.486Z,19.13
2022-08-05T04:29:16.496Z,18.27
2022-08-05T04:31:43.085Z,17.15
2022-08-05T04:34:18.312Z,19.80
2022-08-05T04:36:56.257Z,21.42
2022-08-05T04:39:23.006Z,19.42
2022-08-05T04:41:51.230Z,19.88
2022-08-05T04:44:21.309Z,18.58
2022-08-05T04:46:56.783Z,21.30
2022-08-05T04:50:00.931Z,19.27
2022-08-05T04:52:11.850Z,51.97
2022-08-05T04:54:38.304Z,25.88
2022-08-05T04:57:04.797Z,21.95
2022-08-05T04:59:38.319Z,22.13
2022-08-05T05:02:36.947Z,20.77
2022-08-05T05:04:52.982Z,18.38
2022-08-05T05:07:29.747Z,20.88
2022-08-05T05:10:02.052Z,20.23
2022-08-05T05:12:29.388Z,20.07
2022-08-05T05:14:55.903Z,18.23
2022-08-05T05:17:24.670Z,17.00
2022-08-05T05:20:09.932Z,17.98
2022-08-05T05:22:40.845Z,21.88
2022-08-05T05:25:16.659Z,15.77
2022-08-05T05:27:53.728Z,18.95
2022-08-05T05:30:31.325Z,17.30
2022-08-05T05:33:08.944Z,16.25
2022-08-05T05:35:43.379Z,17.50
2022-08-05T05:38:13.533Z,18.53
2022-08-05T05:40:48.086Z,15.90
2022-08-05T05:43:56.465Z,17.27
2022-08-05T05:46:15.957Z,14.50
2022-08-05T05:48:46.031Z,17.02
2022-08-05T05:51:25.570Z,13.87
2022-08-05T05:53:58.858Z,16.50
2022-08-05T05:56:35.184Z,15.43
2022-08-05T05:59:05.747Z,17.10
2022-08-05T06:01:39.510Z,15.98
2022-08-05T06:04:12.223Z,15.87
2022-08-05T06:06:41.730Z,15.80
2022-08-05T06:09:08.969Z,22.58
2022-08-05T06:11:43.389Z,17.33
2022-08-05T06:14:28.019Z,14.18
2022-08-05T06:16:55.433Z,16.47
2022-08-05T06:19:34.263Z,15.40
2022-08-05T06:22:06.627Z,17.95
2022-08-05T06:24:34.936Z,15.10
2022-08-05T06:27:01.980Z,15.80
2022-08-05T06:29:52.048Z,15.50
2022-08-05T06:32:25.276Z,17.17
2022-08-05T06:34:56.998Z,15.63
2022-08-05T06:37:57.463Z,12.95
2022-08-05T06:40:20.767Z,20.33
2022-08-05T06:42:51.870Z,13.10
2022-08-05T06:45:20.898Z,11.10
2022-08-05T06:48:37.245Z,11.05
2022-08-05T06:50:34.508Z,13.82
2022-08-05T06:53:11.266Z,11.55
2022-08-05T06:55:38.449Z,10.03
2022-08-05T06:58:29.204Z,9.18
2022-08-05T07:00:57.887Z,8.45
2022-08-05T07:03:32.574Z,10.18
2022-08-05T07:05:59.887Z,9.23
2022-08-05T07:08:27.780Z,7.63
2022-08-05T07:10:55.418Z,8.07
2022-08-05T07:13:58.549Z,6.97
2022-08-05T07:18:01.082Z,5.55
2022-08-05T07:22:27.887Z,5.70
2022-08-05T07:24:56.263Z,6.65
2022-08-05T07:27:22.980Z,8.93
2022-08-05T07:30:23.976Z,5.97
2022-08-05T07:32:43.583Z,5.63
2022-08-05T07:36:05.228Z,7.13
2022-08-05T07:38:00.762Z,5.97
2022-08-05T07:40:32.069Z,5.63
2022-08-05T07:42:59.429Z,8.02
2022-08-05T07:45:57.493Z,5.60
2022-08-05T07:49:02.347Z,5.70
2022-08-05T07:51:08.544Z,3.80
2022-08-05T07:53:50.449Z,4.57
2022-08-05T07:57:00.122Z,3.30
2022-08-05T07:59:04.071Z,5.00
2022-08-05T08:01:30.606Z,3.93
2022-08-05T08:03:57.126Z,4.80
2022-08-05T08:06:28.304Z,5.07
2022-08-05T08:08:54.986Z,4.28
2022-08-05T08:11:27.767Z,5.43
2022-08-05T08:14:08.455Z,4.83
2022-08-05T08:16:51.123Z,5.72
2022-08-05T08:20:10.277Z,4.40
2022-08-05T08:22:09.102Z,5.15
2022-08-05T08:24:51.271Z,4.55
2022-08-05T08:27:18.279Z,4.30
2022-08-05T08:30:05.503Z,4.55
2022-08-05T08:32:34.188Z,4.70
2022-08-05T08:35:07.605Z,3.80
2022-08-05T08:37:45.143Z,4.88
2022-08-05T08:40:12.775Z,5.00
2022-08-05T08:42:50.634Z,5.93
2022-08-05T08:45:27.268Z,4.93
2022-08-05T08:48:12.621Z,4.05
2022-08-05T08:51:03.722Z,4.88
2022-08-05T08:53:37.062Z,4.80
2022-08-05T08:56:06.158Z,4.70
2022-08-05T08:58:43.981Z,4.47
2022-08-05T09:01:15.838Z,7.15
2022-08-05T09:03:47.760Z,4.32
2022-08-05T09:06:20.003Z,5.47
2022-08-05T09:08:48.228Z,4.60
2022-08-05T09:11:15.227Z,4.18
2022-08-05T09:14:01.151Z,5.68
2022-08-05T09:16:29.980Z,4.22
2022-08-05T09:18:59.403Z,4.00
2022-08-05T09:22:23.171Z,5.68
2022-08-05T09:24:15.441Z,4.75
2022-08-05T09:26:46.580Z,4.97
2022-08-05T09:29:16.296Z,6.90
2022-08-05T09:32:51.333Z,7.80
2022-08-05T09:34:55.271Z,5.45
2022-08-05T09:38:16.853Z,7.82
2022-08-05T09:40:41.223Z,6.63
2022-08-05T09:43:41.752Z,6.50
2022-08-05T09:46:33.700Z,5.57
2022-08-05T09:49:19.438Z,5.30
2022-08-05T09:51:48.763Z,5.50
2022-08-05T09:54:21.385Z,5.20
2022-08-05T09:56:57.522Z,5.30
2022-08-05T09:59:27.966Z,4.50
2022-08-05T10:01:57.826Z,8.20
2022-08-05T10:04:36.030Z,5.95
2022-08-05T10:07:19.840Z,4.85
2022-08-05T10:10:14.197Z,5.63
2022-08-05T10:12:57.495Z,5.47
2022-08-05T10:15:34.385Z,6.13
2022-08-05T10:18:08.841Z,4.57
2022-08-05T10:20:39.371Z,7.22
2022-08-05T10:23:22.183Z,5.65
2022-08-05T10:25:55.967Z,4.83
2022-08-05T10:28:29.174Z,6.70
2022-08-05T10:32:49.433Z,4.82
2022-08-05T10:33:44.791Z,6.60
2022-08-05T10:36:11.309Z,5.63
2022-08-05T10:38:45.077Z,4.97
2022-08-05T10:41:29.062Z,5.50
2022-08-05T10:44:18.106Z,4.88
2022-08-05T10:46:53.889Z,5.78
2022-08-05T10:49:26.883Z,6.50
2022-08-05T10:52:00.133Z,9.33
2022-08-05T10:54:56.456Z,6.85
2022-08-05T10:57:30.814Z,7.75
2022-08-05T11:00:19.546Z,7.10
2022-08-05T11:03:00.347Z,7.55
2022-08-05T11:06:08.569Z,5.03
2022-08-05T11:09:24.264Z,7.88
2022-08-05T11:12:26.674Z,5.13
2022-08-05T11:15:19.103Z,6.63
2022-08-05T11:17:59.586Z,6.78
2022-08-05T11:20:34.954Z,8.07
2022-08-05T11:24:05.193Z,6.97
2022-08-05T11:26:32.554Z,7.32
2022-08-05T11:29:11.879Z,7.07
2022-08-05T11:31:57.742Z,10.48
2022-08-05T11:34:51.502Z,7.90
2022-08-05T11:38:28.890Z,9.80
2022-08-05T11:41:34.661Z,8.07
2022-08-05T11:44:07.577Z,7.45
2022-08-05T11:47:10.565Z,7.70
2022-08-05T11:49:34.354Z,8.33
2022-08-05T11:52:01.619Z,8.27
2022-08-05T11:54:38.252Z,10.20
2022-08-05T11:57:24.326Z,9.40
2022-08-05T11:59:53.152Z,8.77
2022-08-05T12:02:31.510Z,9.00
2022-08-05T12:05:00.502Z,9.93
2022-08-05T12:08:04.413Z,11.48
2022-08-05T12:10:23.061Z,11.73
2022-08-05T12:12:59.741Z,10.68
2022-08-05T12:15:35.959Z,10.50
2022-08-05T12:18:11.092Z,9.70
2022-08-05T12:20:39.417Z,9.55
2022-08-05T12:23:11.391Z,9.13
2022-08-05T12:25:58.299Z,9.30
2022-08-05T12:28:36.591Z,9.03
2022-08-05T12:31:04.198Z,8.48
2022-08-05T12:33:36.511Z,10.40
2022-08-05T12:36:08.454Z,8.68
2022-08-05T12:38:40.173Z,8.25
2022-08-05T12:41:13.956Z,7.80
2022-08-05T12:43:50.633Z,6.82
2022-08-05T12:46:29.589Z,6.30
2022-08-05T12:49:01.693Z,8.73
2022-08-05T12:52:12.422Z,7.80
2022-08-05T12:54:48.707Z,8.83
2022-08-05T12:57:17.086Z,9.15
2022-08-05T13:01:57.647Z,9.07
2022-08-05T13:02:35.812Z,7.13
2022-08-05T13:05:06.190Z,6.43
2022-08-05T13:07:57.357Z,6.57
2022-08-05T13:10:19.884Z,7.68
2022-08-05T13:12:57.114Z,8.20
2022-08-05T13:15:41.902Z,8.13
2022-08-05T13:18:20.151Z,8.10
2022-08-05T13:20:47.445Z,7.80
2022-08-05T13:23:16.387Z,7.57
2022-08-05T13:25:52.301Z,8.15
2022-08-05T13:28:26.613Z,7.63
2022-08-05T13:30:53.419Z,8.13
2022-08-05T13:34:20.954Z,9.60
2022-08-05T13:36:09.320Z,9.27
2022-08-05T13:38:38.423Z,9.23
2022-08-05T13:41:12.572Z,10.20
2022-08-05T13:43:44.466Z,10.80
2022-08-05T13:46:30.764Z,11.23
2022-08-05T13:49:10.512Z,11.52
2022-08-05T13:51:40.932Z,11.15
2022-08-05T13:54:13.213Z,11.73
2022-08-05T13:56:45.064Z,13.25
2022-08-05T13:59:23.717Z,12.50
2022-08-05T14:01:56.627Z,11.70
2022-08-05T14:04:50.369Z,12.23
2022-08-05T14:07:55.796Z,10.90
2022-08-05T14:10:18.414Z,12.75
2022-08-05T14:12:48.766Z,11.97
2022-08-05T14:16:09.128Z,10.65
2022-08-05T14:18:02.890Z,11.98
2022-08-05T14:20:31.600Z,14.02
2022-08-05T14:22:59.279Z,10.40
2022-08-05T14:25:28.220Z,10.50
2022-08-05T14:27:55.306Z,12.48
2022-08-05T14:30:21.996Z,11.80
2022-08-05T14:32:48.976Z,13.32
2022-08-05T14:35:16.282Z,12.57
2022-08-05T14:37:52.114Z,11.63
2022-08-05T14:40:24.602Z,11.65
2022-08-05T14:42:52.033Z,12.00
2022-08-05T14:45:19.166Z,10.35
2022-08-05T14:48:03.830Z,9.95
2022-08-05T14:50:33.059Z,11.03
2022-08-05T14:53:02.749Z,8.77
2022-08-05T14:55:39.162Z,8.68
2022-08-05T14:58:12.235Z,8.40
2022-08-05T15:00:58.561Z,9.43
2022-08-05T15:03:33.251Z,7.30
2022-08-05T15:06:07.857Z,7.22
2022-08-05T15:08:58.008Z,6.63
2022-08-05T15:11:50.930Z,5.45
2022-08-05T15:14:11.869Z,4.85
2022-08-05T15:16:58.320Z,5.03
2022-08-05T15:19:24.726Z,4.75
2022-08-05T15:21:51.340Z,5.03
2022-08-05T15:24:18.375Z,6.45
2022-08-05T15:26:46.695Z,4.50
2022-08-05T15:29:15.279Z,4.03
2022-08-05T15:31:41.774Z,2.60
2022-08-05T15:34:31.166Z,3.20
2022-08-05T15:36:54.638Z,4.10
2022-08-05T15:41:01.992Z,3.95
2022-08-05T15:42:53.726Z,3.93
2022-08-05T15:44:54.942Z,3.83
2022-08-05T15:47:23.711Z,5.75
2022-08-05T15:49:58.441Z,3.35
2022-08-05T15:52:52.094Z,2.40
2022-08-05T15:55:16.627Z,2.33
2022-08-05T15:57:43.338Z,2.53
2022-08-05T16:00:11.987Z,2.58
2022-08-05T16:02:38.651Z,2.30
2022-08-05T16:05:05.585Z,3.97
2022-08-05T16:07:36.315Z,2.77
2022-08-05T16:10:04.188Z,2.63
2022-08-05T16:12:30.993Z,2.30
2022-08-05T16:14:57.576Z,2.72
2022-08-05T16:17:24.368Z,5.60
2022-08-05T16:20:05.075Z,2.97
2022-08-05T16:22:37.724Z,2.60
2022-08-05T16:25:08.024Z,2.67
2022-08-05T16:27:47.218Z,3.28
2022-08-05T16:30:26.236Z,2.65
2022-08-05T16:32:55.055Z,3.77
2022-08-05T16:35:27.928Z,3.67
2022-08-05T16:38:02.322Z,3.55
2022-08-05T16:40:51.668Z,3.53
2022-08-05T16:43:23.707Z,4.85
2022-08-05T16:46:03.702Z,2.60
2022-08-05T16:48:36.051Z,3.05
2022-08-05T16:51:03.956Z,4.25
2022-08-05T16:54:03.854Z,3.08
2022-08-05T16:56:23.615Z,3.10
2022-08-05T16:58:50.375Z,4.23
2022-08-05T17:01:17.081Z,3.78
2022-08-05T17:03:45.502Z,5.78
2022-08-05T17:06:12.303Z,3.60
2022-08-05T17:08:52.840Z,3.20
2022-08-05T17:11:25.496Z,3.53
2022-08-05T17:14:05.205Z,3.10
2022-08-05T17:16:35.983Z,4.30
2022-08-05T17:19:07.542Z,5.07
2022-08-05T17:21:37.435Z,4.88
2022-08-05T17:24:28.158Z,4.20
2022-08-05T17:26:55.821Z,3.28
2022-08-05T17:29:33.931Z,5.07
2022-08-05T17:32:16.877Z,3.67
2022-08-05T17:34:47.514Z,3.63
2022-08-05T17:37:41.876Z,5.13
2022-08-05T17:40:01.077Z,4.55
2022-08-05T17:42:30.177Z,3.67
2022-08-05T17:44:59.185Z,4.88
2022-08-05T17:47:26.964Z,5.85
2022-08-05T17:50:03.907Z,4.17
2022-08-05T17:52:32.419Z,4.72
2022-08-05T17:54:59.847Z,3.17
2022-08-05T17:57:27.772Z,4.03
2022-08-05T18:00:03.604Z,4.25
2022-08-05T18:02:32.537Z,6.93
2022-08-05T18:05:02.736Z,4.03
2022-08-05T18:07:32.965Z,3.45
2022-08-05T18:10:10.277Z,4.15
2022-08-05T18:12:37.468Z,3.60
2022-08-05T18:15:05.321Z,4.07
2022-08-05T18:17:59.193Z,4.78
2022-08-05T18:20:19.590Z,5.43
2022-08-05T18:22:57.586Z,6.95
2022-08-05T18:25:25.175Z,3.28
2022-08-05T18:27:59.165Z,3.70
2022-08-05T18:30:29.130Z,4.50
2022-08-05T18:33:00.532Z,3.38
2022-08-05T18:35:49.565Z,4.78
2022-08-05T18:38:18.957Z,4.57
2022-08-05T18:41:56.358Z,4.23
2022-08-05T18:43:38.151Z,6.05
2022-08-05T18:46:09.761Z,3.97
2022-08-05T18:48:41.671Z,5.45
2022-08-05T18:52:04.811Z,5.95
2022-08-05T18:54:13.997Z,5.70
2022-08-05T18:56:40.811Z,4.05
2022-08-05T18:59:43.059Z,3.47
2022-08-05T19:01:58.099Z,3.42
2022-08-05T19:04:25.541Z,5.57
2022-08-05T19:06:53.650Z,6.23
2022-08-05T19:09:21.061Z,3.47
2022-08-05T19:12:01.117Z,4.57
2022-08-05T19:14:59.390Z,3.97
2022-08-05T19:17:16.594Z,5.07
2022-08-05T19:19:47.036Z,4.90
2022-08-05T19:22:17.248Z,4.63
2022-08-05T19:24:54.166Z,4.55
2022-08-05T19:27:22.940Z,4.28
2022-08-05T19:29:49.940Z,3.65
2022-08-05T19:32:16.511Z,5.33
2022-08-05T19:34:54.660Z,5.57
2022-08-05T19:37:29.985Z,9.05
2022-08-05T19:40:10.765Z,4.50
2022-08-05T19:42:38.715Z,4.97
2022-08-05T19:45:07.109Z,7.30
2022-08-05T19:47:37.390Z,8.43
2022-08-05T19:50:07.531Z,6.20
2022-08-05T19:52:36.885Z,5.40
2022-08-05T19:55:07.193Z,4.55
2022-08-05T19:57:48.917Z,6.57
2022-08-05T20:00:22.891Z,4.72
2022-08-05T20:02:49.372Z,4.93
2022-08-05T20:05:24.480Z,7.95
2022-08-05T20:07:55.039Z,4.35
2022-08-05T20:10:25.002Z,4.90
2022-08-05T20:12:51.850Z,5.25
2022-08-05T20:15:48.907Z,5.05
2022-08-05T20:18:10.848Z,6.90
2022-08-05T20:20:56.483Z,4.53
2022-08-05T20:23:39.397Z,4.30
2022-08-05T20:26:16.045Z,5.75
2022-08-05T20:28:44.833Z,4.63
2022-08-05T20:31:11.327Z,5.75
2022-08-05T20:33:37.812Z,5.72
2022-08-05T20:36:09.024Z,4.13
2022-08-05T20:38:37.658Z,7.00
2022-08-05T20:41:08.058Z,4.90
2022-08-05T20:43:59.824Z,5.43
2022-08-05T20:46:24.961Z,5.10
2022-08-05T20:48:52.273Z,4.73
2022-08-05T20:51:18.714Z,5.55
2022-08-05T20:53:56.564Z,5.13
2022-08-05T20:56:29.755Z,5.47
2022-08-05T20:59:00.084Z,4.90
2022-08-05T21:01:38.853Z,4.23
2022-08-05T21:04:07.208Z,5.25
2022-08-05T21:06:37.152Z,5.35
2022-08-05T21:09:07.813Z,3.58
2022-08-05T21:12:07.246Z,4.90
2022-08-05T21:14:26.588Z,4.40
2022-08-05T21:16:53.291Z,4.25
2022-08-05T21:19:20.105Z,4.68
2022-08-05T21:21:50.815Z,5.05
2022-08-05T21:24:19.611Z,4.13
2022-08-05T21:26:53.462Z,4.83
2022-08-05T21:29:26.216Z,4.72
2022-08-05T21:31:53.646Z,4.22
2022-08-05T21:34:20.421Z,8.48
2022-08-05T21:36:49.021Z,4.75
2022-08-05T21:39:16.789Z,3.83
2022-08-05T21:41:52.449Z,5.15
2022-08-05T21:44:27.002Z,6.55
2022-08-05T21:46:53.737Z,6.50
2022-08-05T21:49:56.840Z,3.70
2022-08-05T21:52:21.904Z,5.00
2022-08-05T21:54:55.117Z,5.75
2022-08-05T21:57:31.192Z,7.15
2022-08-05T22:00:10.950Z,7.30
2022-08-05T22:02:38.335Z,7.70
2022-08-05T22:05:05.308Z,4.80
2022-08-05T22:07:40.436Z,4.55
2022-08-05T22:10:26.611Z,5.15
2022-08-05T22:12:54.232Z,4.63
2022-08-05T22:16:01.170Z,4.15
2022-08-05T22:18:08.607Z,4.67
2022-08-05T22:20:39.185Z,6.78
2022-08-05T22:24:03.171Z,4.90
2022-08-05T22:26:30.581Z,6.57
2022-08-05T22:28:57.022Z,4.57
2022-08-05T22:31:24.885Z,11.37
2022-08-05T22:34:00.953Z,5.32
2022-08-05T22:36:28.609Z,6.00
2022-08-05T22:38:56.207Z,5.90
2022-08-05T22:42:04.354Z,5.90
2022-08-05T22:44:10.099Z,7.03
2022-08-05T22:46:40.542Z,7.93
2022-08-05T22:49:23.009Z,5.45
2022-08-05T22:52:04.259Z,5.30
2022-08-05T22:54:34.937Z,5.28
2022-08-05T22:57:01.574Z,5.60
2022-08-05T22:59:43.784Z,5.43
2022-08-05T23:02:17.355Z,5.72
2022-08-05T23:04:51.957Z,7.45
2022-08-05T23:07:21.853Z,5.55
2022-08-05T23:09:57.404Z,3.67
2022-08-05T23:12:28.604Z,4.90
2022-08-05T23:14:55.328Z,4.45
2022-08-05T23:17:34.061Z,6.22
2022-08-05T23:20:02.616Z,4.30
2022-08-05T23:22:29.346Z,4.93
2022-08-05T23:24:57.532Z,6.95
2022-08-05T23:27:24.406Z,4.75
2022-08-05T23:29:57.967Z,3.92
2022-08-05T23:32:24.753Z,3.40
2022-08-05T23:34:53.809Z,4.63
2022-08-05T23:37:20.318Z,4.88
2022-08-05T23:39:54.145Z,5.15
2022-08-05T23:42:23.568Z,3.88
2022-08-05T23:44:56.338Z,4.20
2022-08-05T23:47:24.913Z,3.27
2022-08-05T23:49:52.319Z,8.60
2022-08-05T23:52:30.500Z,4.40
2022-08-05T23:55:02.643Z,6.90
2022-08-05T23:57:32.388Z,6.10
